createdAt,value
2019-05-17T00:01:38.609Z,17.77
2019-05-17T00:04:10.472Z,16.87
2019-05-17T00:06:43.162Z,22.35
2019-05-17T00:09:14.879Z,20.77
2019-05-17T00:11:47.301Z,22.25
2019-05-17T00:14:20.165Z,26.20
2019-05-17T00:16:51.927Z,24.80
2019-05-17T00:19:26.178Z,20.15
2019-05-17T00:21:57.484Z,23.15
2019-05-17T00:24:29.347Z,22.07
2019-05-17T00:27:01.214Z,23.52
2019-05-17T00:29:33.067Z,22.95
2019-05-17T00:32:06.396Z,21.42
2019-05-17T00:34:38.217Z,21.95
2019-05-17T00:37:10.098Z,26.02
2019-05-17T00:39:42.039Z,21.07
2019-05-17T00:42:13.752Z,22.77
2019-05-17T00:44:47.409Z,26.35
2019-05-17T00:47:18.956Z,25.02
2019-05-17T00:49:50.606Z,22.50
2019-05-17T00:52:22.468Z,21.37
2019-05-17T00:54:56.278Z,22.17
2019-05-17T00:57:27.514Z,24.90
2019-05-17T00:59:59.483Z,28.25
2019-05-17T01:02:31.117Z,27.60
2019-05-17T01:05:03.215Z,29.65
2019-05-17T01:07:37.409Z,28.23
2019-05-17T01:10:09.279Z,31.70
2019-05-17T01:12:40.875Z,32.03
2019-05-17T01:15:13.447Z,34.30
2019-05-17T01:17:47.149Z,28.47
2019-05-17T01:20:18.317Z,29.45
2019-05-17T01:22:49.944Z,28.62
2019-05-17T01:25:21.970Z,32.73
2019-05-17T01:27:53.829Z,31.07
2019-05-17T01:30:26.643Z,28.60
2019-05-17T01:32:58.400Z,34.18
2019-05-17T01:35:30.232Z,30.05
2019-05-17T01:38:02.188Z,39.90
2019-05-17T01:40:33.748Z,30.45
2019-05-17T01:43:07.826Z,35.65
2019-05-17T01:45:39.735Z,31.60
2019-05-17T01:48:11.678Z,31.70
2019-05-17T01:50:43.539Z,26.17
2019-05-17T01:53:16.639Z,28.00
2019-05-17T01:55:48.387Z,26.30
2019-05-17T01:58:20.142Z,28.10
2019-05-17T02:00:52.772Z,26.10
2019-05-17T02:03:26.631Z,29.40
2019-05-17T02:05:57.671Z,30.20
2019-05-17T02:08:29.832Z,32.20
2019-05-17T02:11:01.635Z,22.62
2019-05-17T02:13:33.101Z,24.05
2019-05-17T02:16:07.000Z,20.35
2019-05-17T02:18:38.394Z,21.48
2019-05-17T02:21:10.405Z,21.93
2019-05-17T02:23:42.135Z,21.77
2019-05-17T02:26:14.176Z,22.58
2019-05-17T02:28:46.144Z,20.75
2019-05-17T02:31:17.800Z,22.58
2019-05-17T02:33:49.880Z,20.48
2019-05-17T02:36:22.848Z,22.60
2019-05-17T02:38:54.567Z,20.62
2019-05-17T02:41:26.289Z,19.73
2019-05-17T02:43:58.131Z,23.85
2019-05-17T02:46:29.791Z,23.10
2019-05-17T02:49:03.047Z,25.50
2019-05-17T02:51:34.537Z,21.05
2019-05-17T02:54:06.175Z,26.50
2019-05-17T02:56:38.209Z,29.87
2019-05-17T02:59:13.371Z,22.85
2019-05-17T03:01:44.499Z,24.15
2019-05-17T03:04:16.278Z,26.80
2019-05-17T03:06:47.895Z,22.65
2019-05-17T03:09:22.641Z,23.60
2019-05-17T03:11:56.959Z,27.87
2019-05-17T03:14:26.691Z,24.07
2019-05-17T03:16:58.410Z,40.48
2019-05-17T03:19:32.798Z,24.90
2019-05-17T03:22:07.852Z,27.58
2019-05-17T03:24:38.342Z,33.30
2019-05-17T03:27:13.492Z,31.40
2019-05-17T03:29:43.688Z,30.17
2019-05-17T03:32:17.572Z,33.35
2019-05-17T03:34:55.888Z,34.55
2019-05-17T03:37:29.957Z,40.75
2019-05-17T03:39:57.677Z,34.35
2019-05-17T03:42:29.649Z,36.35
2019-05-17T03:45:02.889Z,39.65
2019-05-17T03:47:35.021Z,42.33
2019-05-17T03:50:07.077Z,45.05
2019-05-17T03:52:38.513Z,38.92
2019-05-17T03:55:13.190Z,41.28
2019-05-17T03:57:45.038Z,39.25
2019-05-17T04:00:18.084Z,44.93
2019-05-17T04:02:49.639Z,59.05
2019-05-17T04:05:22.717Z,44.15
2019-05-17T04:07:54.699Z,41.28
2019-05-17T04:10:26.676Z,43.95
2019-05-17T04:12:58.533Z,54.73
2019-05-17T04:15:32.901Z,39.85
2019-05-17T04:18:04.544Z,44.23
2019-05-17T04:20:37.267Z,45.73
2019-05-17T04:23:09.026Z,54.70
2019-05-17T04:25:43.491Z,40.70
2019-05-17T04:28:14.189Z,48.20
2019-05-17T04:30:47.083Z,43.02
2019-05-17T04:33:18.524Z,60.43
2019-05-17T04:35:49.991Z,49.10
2019-05-17T04:38:23.581Z,46.23
2019-05-17T04:40:55.016Z,54.27
2019-05-17T04:43:26.797Z,57.33
2019-05-17T04:45:58.429Z,48.30
2019-05-17T04:48:32.647Z,73.92
2019-05-17T04:51:03.322Z,58.87
2019-05-17T04:53:34.966Z,45.45
2019-05-17T04:56:06.893Z,67.45
2019-05-17T04:58:38.545Z,45.88
2019-05-17T05:01:12.977Z,56.35
2019-05-17T05:03:43.668Z,45.12
2019-05-17T05:06:15.255Z,44.48
2019-05-17T05:08:46.940Z,39.00
2019-05-17T05:11:18.767Z,49.70
2019-05-17T05:13:53.133Z,50.98
2019-05-17T05:16:24.439Z,43.73
2019-05-17T05:18:56.293Z,64.97
2019-05-17T05:21:32.358Z,48.68
2019-05-17T05:24:04.118Z,52.85
2019-05-17T05:26:36.072Z,41.58
2019-05-17T05:29:07.735Z,42.67
2019-05-17T05:31:39.694Z,47.03
2019-05-17T05:34:12.342Z,40.33
2019-05-17T05:36:43.909Z,45.92
2019-05-17T05:39:15.374Z,43.38
2019-05-17T05:41:47.335Z,47.00
2019-05-17T05:44:21.426Z,40.85
2019-05-17T05:46:52.796Z,59.85
2019-05-17T05:49:25.531Z,51.80
2019-05-17T05:51:57.737Z,64.20
2019-05-17T05:54:29.206Z,45.75
2019-05-17T05:57:02.327Z,51.50
2019-05-17T05:59:35.510Z,68.22
2019-05-17T06:02:07.159Z,33.83
2019-05-17T06:04:39.091Z,40.70
2019-05-17T06:07:12.910Z,46.92
2019-05-17T06:09:44.493Z,38.45
2019-05-17T06:12:23.791Z,46.18
2019-05-17T06:14:49.396Z,51.73
2019-05-17T06:17:21.619Z,45.80
2019-05-17T06:19:53.344Z,37.63
2019-05-17T06:22:24.773Z,70.45
2019-05-17T06:24:56.530Z,39.53
2019-05-17T06:27:28.494Z,37.10
2019-05-17T06:30:01.469Z,42.80
2019-05-17T06:32:33.235Z,54.83
2019-05-17T06:35:05.554Z,39.38
2019-05-17T06:37:37.158Z,47.03
2019-05-17T06:40:09.427Z,40.23
2019-05-17T06:42:44.980Z,38.73
2019-05-17T06:45:15.197Z,36.03
2019-05-17T06:47:47.067Z,48.40
2019-05-17T06:50:18.814Z,48.00
2019-05-17T06:52:53.112Z,34.08
2019-05-17T06:55:24.371Z,30.35
2019-05-17T06:57:55.932Z,44.60
2019-05-17T07:00:29.886Z,33.63
2019-05-17T07:03:01.935Z,38.35
2019-05-17T07:05:35.418Z,37.08
2019-05-17T07:08:06.849Z,49.95
2019-05-17T07:10:40.022Z,36.33
2019-05-17T07:13:11.826Z,41.00
2019-05-17T07:15:47.610Z,42.78
2019-05-17T07:18:19.280Z,37.13
2019-05-17T07:20:50.388Z,31.42
2019-05-17T07:23:22.022Z,33.15
2019-05-17T07:25:53.717Z,32.28
2019-05-17T07:28:25.518Z,26.95
2019-05-17T07:30:59.465Z,30.15
2019-05-17T07:33:30.732Z,39.95
2019-05-17T07:36:02.692Z,22.70
2019-05-17T07:38:34.032Z,21.57
2019-05-17T07:41:05.549Z,28.23
2019-05-17T07:43:37.395Z,27.77
2019-05-17T07:46:09.676Z,24.70
2019-05-17T07:48:41.341Z,22.85
2019-05-17T07:51:13.285Z,19.98
2019-05-17T07:53:45.349Z,20.90
2019-05-17T07:56:17.037Z,33.13
2019-05-17T07:58:49.492Z,35.40
2019-05-17T08:01:23.182Z,24.45
2019-05-17T08:03:55.200Z,22.73
2019-05-17T08:06:26.904Z,25.45
2019-05-17T08:09:03.945Z,26.20
2019-05-17T08:11:32.068Z,24.63
2019-05-17T08:14:03.918Z,23.75
2019-05-17T08:16:35.782Z,26.75
2019-05-17T08:19:09.597Z,23.47
2019-05-17T08:21:40.886Z,29.12
2019-05-17T08:24:13.405Z,22.35
2019-05-17T08:26:45.262Z,21.90
2019-05-17T08:29:16.979Z,25.68
2019-05-17T08:31:49.727Z,20.15
2019-05-17T08:34:21.254Z,24.15
2019-05-17T08:36:53.007Z,21.45
2019-05-17T08:39:24.681Z,28.02
2019-05-17T08:41:56.429Z,29.27
2019-05-17T08:44:29.887Z,21.15
2019-05-17T08:47:01.470Z,17.25
2019-05-17T08:49:33.537Z,28.52
2019-05-17T08:52:05.283Z,17.60
2019-05-17T08:54:40.533Z,24.12
2019-05-17T08:57:10.388Z,30.15
2019-05-17T08:59:41.914Z,27.15
2019-05-17T09:02:13.864Z,19.23
2019-05-17T09:04:45.724Z,43.33
2019-05-17T09:07:20.196Z,30.60
2019-05-17T09:09:51.196Z,17.30
2019-05-17T09:12:22.940Z,26.52
2019-05-17T09:14:54.492Z,15.40
2019-05-17T09:17:26.250Z,18.35
2019-05-17T09:20:00.463Z,21.15
2019-05-17T09:22:31.610Z,23.45
2019-05-17T09:25:03.505Z,21.12
2019-05-17T09:27:35.026Z,20.05
2019-05-17T09:30:09.462Z,12.85
2019-05-17T09:32:41.089Z,13.45
2019-05-17T09:35:13.059Z,41.63
2019-05-17T09:37:45.015Z,76.28
2019-05-17T09:40:16.985Z,18.55
2019-05-17T09:42:49.952Z,19.87
2019-05-17T09:45:21.826Z,17.95
2019-05-17T09:47:53.585Z,26.48
2019-05-17T09:50:25.298Z,26.62
2019-05-17T09:52:57.125Z,19.35
2019-05-17T09:55:30.069Z,18.37
2019-05-17T09:58:01.634Z,21.73
2019-05-17T10:00:33.965Z,19.65
2019-05-17T10:03:05.617Z,18.15
2019-05-17T10:05:40.305Z,18.67
2019-05-17T10:08:11.181Z,19.70
2019-05-17T10:10:43.088Z,11.55
2019-05-17T10:13:14.855Z,14.90
2019-05-17T10:15:46.809Z,19.95
2019-05-17T10:18:20.040Z,14.50
2019-05-17T10:20:51.548Z,15.15
2019-05-17T10:23:23.132Z,16.02
2019-05-17T10:25:54.967Z,11.38
2019-05-17T10:28:26.621Z,14.20
2019-05-17T10:31:02.061Z,15.63
2019-05-17T10:33:31.367Z,13.10
2019-05-17T10:36:03.123Z,12.73
2019-05-17T10:38:34.888Z,10.45
2019-05-17T10:41:06.588Z,6.83
2019-05-17T10:43:39.245Z,15.65
2019-05-17T10:46:10.876Z,10.60
2019-05-17T10:48:42.627Z,12.82
2019-05-17T10:51:14.399Z,11.40
2019-05-17T10:53:46.148Z,17.40
2019-05-17T10:56:19.930Z,9.58
2019-05-17T10:58:51.036Z,16.97
2019-05-17T11:01:22.749Z,18.15
2019-05-17T11:03:54.408Z,17.62
2019-05-17T11:06:25.849Z,9.55
2019-05-17T11:08:59.511Z,16.55
2019-05-17T11:11:30.696Z,25.15
2019-05-17T11:14:02.565Z,32.67
2019-05-17T11:16:33.952Z,13.30
2019-05-17T11:19:08.652Z,16.87
2019-05-17T11:21:38.855Z,11.53
2019-05-17T11:24:10.405Z,17.35
2019-05-17T11:26:41.792Z,19.75
2019-05-17T11:29:13.517Z,22.55
2019-05-17T11:31:45.169Z,33.18
2019-05-17T11:34:17.095Z,43.30
2019-05-17T11:36:49.027Z,13.58
2019-05-17T11:39:20.851Z,18.12
2019-05-17T11:41:52.520Z,11.03
2019-05-17T11:44:24.429Z,10.10
2019-05-17T11:46:56.045Z,13.48
2019-05-17T11:49:27.896Z,14.38
2019-05-17T11:51:59.844Z,44.98
2019-05-17T11:54:31.401Z,15.83
2019-05-17T11:57:03.263Z,13.45
2019-05-17T11:59:35.059Z,21.42
2019-05-17T12:02:07.607Z,10.85
2019-05-17T12:04:39.157Z,14.63
2019-05-17T12:07:10.558Z,23.98
2019-05-17T12:09:43.399Z,46.23
2019-05-17T12:12:15.077Z,18.20
2019-05-17T12:14:46.920Z,42.38
2019-05-17T12:17:18.337Z,17.85
2019-05-17T12:19:50.303Z,80.55
2019-05-17T12:22:22.083Z,19.75
2019-05-17T12:24:53.637Z,8.70
2019-05-17T12:27:25.317Z,36.28
2019-05-17T12:29:57.174Z,17.73
2019-05-17T12:32:28.678Z,24.90
2019-05-17T12:35:00.562Z,10.68
2019-05-17T12:37:32.428Z,17.00
2019-05-17T12:40:05.376Z,12.45
2019-05-17T12:42:36.838Z,20.37
2019-05-17T12:45:09.244Z,11.73
2019-05-17T12:47:40.721Z,12.65
2019-05-17T12:50:12.847Z,20.52
2019-05-17T12:52:44.379Z,15.48
2019-05-17T12:55:16.449Z,15.43
2019-05-17T12:57:48.325Z,13.38
2019-05-17T13:00:20.597Z,43.55
2019-05-17T13:02:52.090Z,13.00
2019-05-17T13:05:23.594Z,12.85
2019-05-17T13:07:55.342Z,17.30
2019-05-17T13:10:26.906Z,14.15
2019-05-17T13:12:58.645Z,18.75
2019-05-17T13:15:30.140Z,30.80
2019-05-17T13:18:01.756Z,13.03
2019-05-17T13:20:33.398Z,20.68
2019-05-17T13:23:05.290Z,12.03
2019-05-17T13:25:36.756Z,21.65
2019-05-17T13:28:08.397Z,33.88
2019-05-17T13:30:40.347Z,16.73
2019-05-17T13:33:12.006Z,18.45
2019-05-17T13:35:43.924Z,13.00
2019-05-17T13:38:15.588Z,13.38
2019-05-17T13:40:47.269Z,12.35
2019-05-17T13:43:18.949Z,10.03
2019-05-17T13:45:50.697Z,37.42
2019-05-17T13:48:22.230Z,30.60
2019-05-17T13:50:53.928Z,15.38
2019-05-17T13:53:25.611Z,22.62
2019-05-17T13:55:57.513Z,13.65
2019-05-17T13:58:29.076Z,10.03
2019-05-17T14:01:01.283Z,16.50
2019-05-17T14:03:34.429Z,17.62
2019-05-17T14:06:06.094Z,22.77
2019-05-17T14:08:37.823Z,12.40
2019-05-17T14:11:09.433Z,37.38
2019-05-17T14:13:42.463Z,12.95
2019-05-17T14:16:14.428Z,18.48
2019-05-17T14:18:46.418Z,9.33
2019-05-17T14:21:18.172Z,17.77
2019-05-17T14:23:49.903Z,19.23
2019-05-17T14:26:21.421Z,13.48
2019-05-17T14:28:53.193Z,11.50
2019-05-17T14:31:25.051Z,16.97
2019-05-17T14:33:56.937Z,18.57
2019-05-17T14:36:30.236Z,48.35
2019-05-17T14:39:02.333Z,31.27
2019-05-17T14:41:35.608Z,12.70
2019-05-17T14:44:07.042Z,19.55
2019-05-17T14:46:38.899Z,50.00
2019-05-17T14:49:10.764Z,25.02
2019-05-17T14:51:42.326Z,15.65
2019-05-17T14:54:14.063Z,15.05
2019-05-17T14:56:45.814Z,16.67
2019-05-17T14:59:17.705Z,7.00
2019-05-17T15:01:49.944Z,19.12
2019-05-17T15:04:21.813Z,30.32
2019-05-17T15:06:53.851Z,8.50
2019-05-17T15:09:25.332Z,14.40
2019-05-17T15:11:58.585Z,14.83
2019-05-17T15:14:30.103Z,12.30
2019-05-17T15:17:03.095Z,19.42
2019-05-17T15:19:35.431Z,13.75
2019-05-17T15:22:07.208Z,13.80
2019-05-17T15:24:39.159Z,15.15
2019-05-17T15:27:10.631Z,13.88
2019-05-17T15:29:42.463Z,13.38
2019-05-17T15:32:14.141Z,19.50
2019-05-17T15:34:45.913Z,10.20
2019-05-17T15:37:17.534Z,11.15
2019-05-17T15:39:48.981Z,21.55
2019-05-17T15:42:20.658Z,14.00
2019-05-17T15:44:52.390Z,19.17
2019-05-17T15:47:24.418Z,11.60
2019-05-17T15:49:56.418Z,10.48
2019-05-17T15:52:28.187Z,19.25
2019-05-17T15:54:59.829Z,18.95
2019-05-17T15:57:31.521Z,10.50
2019-05-17T16:00:03.650Z,11.97
2019-05-17T16:02:36.539Z,10.63
2019-05-17T16:05:08.993Z,8.05
2019-05-17T16:07:40.476Z,10.03
2019-05-17T16:10:13.187Z,18.42
2019-05-17T16:13:00.852Z,11.22
2019-05-17T16:15:18.243Z,7.95
2019-05-17T16:17:50.015Z,10.90
2019-05-17T16:20:22.751Z,34.60
2019-05-17T16:22:55.036Z,15.58
2019-05-17T16:25:26.792Z,19.25
2019-05-17T16:27:58.724Z,17.05
2019-05-17T16:30:30.192Z,11.50
2019-05-17T16:33:01.953Z,14.23
2019-05-17T16:35:33.488Z,25.57
2019-05-17T16:38:05.241Z,11.22
2019-05-17T16:40:37.148Z,12.73
2019-05-17T16:43:17.778Z,13.83
2019-05-17T16:45:42.255Z,12.95
2019-05-17T16:48:14.117Z,19.25
2019-05-17T16:50:46.065Z,24.57
2019-05-17T16:53:18.348Z,13.48
2019-05-17T16:55:50.006Z,15.25
2019-05-17T16:58:22.707Z,24.85
2019-05-17T17:00:54.342Z,17.60
2019-05-17T17:03:34.815Z,16.25
2019-05-17T17:06:00.145Z,13.32
2019-05-17T17:08:32.372Z,13.72
2019-05-17T17:11:03.861Z,21.45
2019-05-17T17:13:35.595Z,11.50
2019-05-17T17:16:07.349Z,19.73
2019-05-17T17:18:38.902Z,11.60
2019-05-17T17:21:10.555Z,15.95
2019-05-17T17:23:42.366Z,18.90
2019-05-17T17:26:14.034Z,19.12
2019-05-17T17:28:45.515Z,12.00
2019-05-17T17:31:17.428Z,14.78
2019-05-17T17:33:49.176Z,33.48
2019-05-17T17:36:20.900Z,20.25
2019-05-17T17:38:52.958Z,14.23
2019-05-17T17:41:26.630Z,15.55
2019-05-17T17:43:59.303Z,34.92
2019-05-17T17:46:31.048Z,23.45
2019-05-17T17:49:02.998Z,23.12
2019-05-17T17:51:34.649Z,16.70
2019-05-17T17:54:06.980Z,14.13
2019-05-17T17:56:38.839Z,17.12
2019-05-17T17:59:10.927Z,19.52
2019-05-17T18:01:42.791Z,20.37
2019-05-17T18:04:14.674Z,12.90
2019-05-17T18:06:46.394Z,7.75
2019-05-17T18:09:19.195Z,7.83
2019-05-17T18:11:50.822Z,10.15
2019-05-17T18:14:22.585Z,14.58
2019-05-17T18:16:54.033Z,26.75
2019-05-17T18:19:25.823Z,11.93
2019-05-17T18:21:57.564Z,8.23
2019-05-17T18:24:29.108Z,26.10
2019-05-17T18:27:01.087Z,10.08
2019-05-17T18:29:32.921Z,10.20
2019-05-17T18:32:04.878Z,13.55
2019-05-17T18:34:36.392Z,17.90
2019-05-17T18:37:08.245Z,14.75
2019-05-17T18:39:39.973Z,12.37
2019-05-17T18:42:11.404Z,10.58
2019-05-17T18:44:43.053Z,10.90
2019-05-17T18:47:14.734Z,33.48
2019-05-17T18:49:46.874Z,16.45
2019-05-17T18:52:18.735Z,13.20
2019-05-17T18:54:50.332Z,10.68
2019-05-17T18:57:22.044Z,12.25
2019-05-17T18:59:54.754Z,8.33
2019-05-17T19:02:26.591Z,12.63
2019-05-17T19:04:57.974Z,18.40
2019-05-17T19:07:29.503Z,10.23
2019-05-17T19:10:01.301Z,9.80
2019-05-17T19:12:33.000Z,14.75
2019-05-17T19:15:10.502Z,12.53
2019-05-17T19:17:42.045Z,13.48
2019-05-17T19:20:13.939Z,9.50
2019-05-17T19:22:45.534Z,9.08
2019-05-17T19:25:17.466Z,9.18
2019-05-17T19:27:49.008Z,17.85
2019-05-17T19:30:20.856Z,27.85
2019-05-17T19:32:53.614Z,12.47
2019-05-17T19:35:26.093Z,14.60
2019-05-17T19:37:57.811Z,11.38
2019-05-17T19:40:29.708Z,12.70
2019-05-17T19:43:01.464Z,16.05
2019-05-17T19:45:33.424Z,17.40
2019-05-17T19:48:05.115Z,11.80
2019-05-17T19:50:36.764Z,9.08
2019-05-17T19:53:08.632Z,9.73
2019-05-17T19:55:40.524Z,9.63
2019-05-17T19:58:12.114Z,6.40
2019-05-17T20:00:44.077Z,10.15
2019-05-17T20:03:15.727Z,10.48
2019-05-17T20:05:47.468Z,9.60
2019-05-17T20:08:19.350Z,8.75
2019-05-17T20:10:52.142Z,8.25
2019-05-17T20:13:23.663Z,7.95
2019-05-17T20:15:55.142Z,8.93
2019-05-17T20:18:26.710Z,9.08
2019-05-17T20:20:58.554Z,9.55
2019-05-17T20:23:30.514Z,9.45
2019-05-17T20:26:02.241Z,10.60
2019-05-17T20:28:33.847Z,8.53
2019-05-17T20:31:05.703Z,13.20
2019-05-17T20:33:37.353Z,10.23
2019-05-17T20:36:09.039Z,22.15
2019-05-17T20:38:40.866Z,8.08
2019-05-17T20:41:12.423Z,6.62
2019-05-17T20:43:44.064Z,11.78
2019-05-17T20:46:15.933Z,12.10
2019-05-17T20:48:47.423Z,9.13
2019-05-17T20:51:18.923Z,7.62
2019-05-17T20:53:50.801Z,10.98
2019-05-17T20:56:32.287Z,8.45
2019-05-17T20:58:56.557Z,6.47
2019-05-17T21:01:28.630Z,10.23
2019-05-17T21:04:00.679Z,5.97
2019-05-17T21:06:32.438Z,9.68
2019-05-17T21:09:05.317Z,5.45
2019-05-17T21:11:36.797Z,8.35
2019-05-17T21:14:08.523Z,8.30
2019-05-17T21:16:40.405Z,8.40
2019-05-17T21:19:11.958Z,7.50
2019-05-17T21:21:43.741Z,8.48
2019-05-17T21:24:15.557Z,12.70
2019-05-17T21:26:47.108Z,7.40
2019-05-17T21:29:18.886Z,8.53
2019-05-17T21:31:50.766Z,7.97
2019-05-17T21:34:22.304Z,5.85
2019-05-17T21:36:54.011Z,7.87
2019-05-17T21:39:25.450Z,7.72
2019-05-17T21:41:57.107Z,22.27
2019-05-17T21:44:28.908Z,11.73
2019-05-17T21:47:04.558Z,9.33
2019-05-17T21:49:33.860Z,10.18
2019-05-17T21:52:06.018Z,9.18
2019-05-17T21:54:37.776Z,5.47
2019-05-17T21:57:09.328Z,9.25
2019-05-17T21:59:41.079Z,8.78
2019-05-17T22:02:13.152Z,11.45
2019-05-17T22:04:45.116Z,8.95
2019-05-17T22:07:16.886Z,7.97
2019-05-17T22:09:48.620Z,6.78
2019-05-17T22:12:20.426Z,9.85
2019-05-17T22:14:52.034Z,7.50
2019-05-17T22:17:23.708Z,6.75
2019-05-17T22:19:55.477Z,5.62
2019-05-17T22:22:27.109Z,9.43
2019-05-17T22:24:58.963Z,11.40
2019-05-17T22:27:30.416Z,4.80
2019-05-17T22:30:02.094Z,5.67
2019-05-17T22:32:33.951Z,6.45
2019-05-17T22:35:06.724Z,11.35
2019-05-17T22:37:38.552Z,8.93
2019-05-17T22:40:10.043Z,10.08
2019-05-17T22:42:41.686Z,9.05
2019-05-17T22:45:13.874Z,6.75
2019-05-17T22:47:45.466Z,7.60
2019-05-17T22:50:17.166Z,7.78
2019-05-17T22:52:49.017Z,17.73
2019-05-17T22:55:20.789Z,8.53
2019-05-17T22:57:52.485Z,12.58
2019-05-17T23:00:24.315Z,7.17
2019-05-17T23:02:55.861Z,8.45
2019-05-17T23:05:27.598Z,9.35
2019-05-17T23:07:59.379Z,9.18
2019-05-17T23:10:34.894Z,8.15
2019-05-17T23:13:05.022Z,8.48
2019-05-17T23:15:38.105Z,9.68
2019-05-17T23:18:09.601Z,10.65
2019-05-17T23:20:41.109Z,7.87
2019-05-17T23:23:15.489Z,13.70
2019-05-17T23:25:46.372Z,12.37
2019-05-17T23:28:19.384Z,11.25
2019-05-17T23:30:51.226Z,9.65
2019-05-17T23:33:22.976Z,8.83
2019-05-17T23:35:54.732Z,7.78
2019-05-17T23:38:26.595Z,7.15
2019-05-17T23:40:58.477Z,9.08
2019-05-17T23:43:31.352Z,6.10
2019-05-17T23:46:03.110Z,9.40
2019-05-17T23:48:35.195Z,7.17
2019-05-17T23:51:06.615Z,8.30
2019-05-17T23:53:38.485Z,8.53
2019-05-17T23:56:10.237Z,6.47
2019-05-17T23:58:42.108Z,12.30
